createdAt,value
2023-04-11T07:18:27.555Z,67.91
2023-04-11T07:20:59.801Z,67.81
2023-04-11T07:23:31.925Z,67.89
2023-04-11T07:26:04.402Z,67.59
2023-04-11T07:28:37.766Z,67.25
2023-04-11T07:31:10.956Z,67.55
2023-04-11T07:33:45.713Z,67.50
2023-04-11T07:36:16.350Z,67.46
2023-04-11T07:38:48.685Z,67.64
2023-04-11T07:41:21.098Z,67.37
2023-04-11T07:43:53.301Z,67.39
2023-04-11T07:46:25.480Z,66.85
2023-04-11T07:48:57.571Z,66.86
2023-04-11T07:51:29.908Z,66.65
2023-04-11T07:54:02.148Z,66.46
2023-04-11T07:56:34.210Z,66.27
2023-04-11T07:59:06.429Z,66.09
2023-04-11T08:01:38.573Z,66.58
2023-04-11T08:04:11.253Z,66.03
2023-04-11T08:06:43.997Z,66.16
2023-04-11T08:09:16.204Z,66.38
2023-04-11T08:11:48.271Z,66.33
2023-04-11T08:14:20.469Z,66.20
2023-04-11T08:16:53.406Z,65.97
2023-04-11T08:19:25.936Z,65.65
2023-04-11T08:21:58.072Z,65.29
2023-04-11T08:24:30.133Z,65.20
2023-04-11T08:27:02.546Z,65.09
2023-04-11T08:29:34.873Z,64.87
2023-04-11T08:32:07.239Z,64.08
2023-04-11T08:34:39.346Z,64.11
2023-04-11T08:37:11.667Z,64.02
2023-04-11T08:39:43.980Z,64.42
2023-04-11T08:42:26.187Z,64.42
2023-04-11T08:45:00.028Z,64.53
2023-04-11T08:47:32.342Z,64.40
2023-04-11T08:50:05.141Z,64.14
2023-04-11T08:52:39.235Z,64.09
2023-04-11T08:55:13.842Z,64.03
2023-04-11T08:57:44.449Z,63.75
2023-04-11T09:00:19.307Z,63.47
2023-04-11T09:03:02.291Z,63.76
2023-04-11T09:05:36.533Z,62.92
2023-04-11T09:08:10.490Z,63.14
2023-04-11T09:10:45.409Z,63.13
2023-04-11T09:13:23.579Z,62.40
2023-04-11T09:16:12.136Z,62.28
2023-04-11T09:18:46.636Z,62.52
2023-04-11T09:21:20.065Z,62.46
2023-04-11T09:23:52.330Z,62.71
2023-04-11T09:26:32.728Z,62.34
2023-04-11T09:29:04.810Z,62.46
2023-04-11T09:31:45.741Z,62.49
2023-04-11T09:34:27.862Z,62.32
2023-04-11T09:37:00.087Z,62.39
2023-04-11T09:39:32.788Z,62.08
2023-04-11T09:42:23.861Z,61.90
2023-04-11T09:44:56.095Z,62.22
2023-04-11T09:47:32.794Z,61.21
2023-04-11T09:50:05.404Z,61.62
2023-04-11T09:52:41.083Z,61.17
2023-04-11T09:55:14.580Z,61.17
2023-04-11T09:57:48.442Z,61.49
2023-04-11T10:00:24.401Z,61.35
2023-04-11T10:02:57.402Z,61.44
2023-04-11T10:05:32.006Z,61.38
2023-04-11T10:08:08.078Z,60.97
2023-04-11T10:10:43.665Z,60.51
2023-04-11T10:13:45.670Z,60.55
2023-04-11T10:16:19.627Z,60.64
2023-04-11T10:19:25.321Z,60.53
2023-04-11T10:21:56.106Z,60.83
2023-04-11T10:24:28.238Z,60.44
2023-04-11T10:27:03.871Z,60.33
2023-04-11T10:29:55.937Z,60.52
2023-04-11T10:32:28.200Z,60.39
2023-04-11T10:35:27.697Z,60.15
2023-04-11T10:37:59.987Z,60.33
2023-04-11T10:40:32.260Z,60.28
2023-04-11T10:43:22.435Z,60.16
2023-04-11T10:46:21.773Z,60.29
2023-04-11T10:49:04.497Z,60.13
2023-04-11T10:51:36.930Z,60.22
2023-04-11T10:54:25.116Z,60.24
2023-04-11T10:57:00.005Z,59.79
2023-04-11T11:00:14.274Z,59.72
2023-04-11T11:02:47.083Z,58.96
2023-04-11T11:05:24.295Z,58.99
2023-04-11T11:07:56.831Z,58.31
2023-04-11T11:10:47.356Z,58.98
2023-04-11T11:13:19.956Z,58.68
2023-04-11T11:15:52.744Z,58.87
2023-04-11T11:18:25.034Z,58.62
2023-04-11T11:20:58.844Z,58.81
2023-04-11T11:23:31.081Z,57.99
2023-04-11T11:26:03.364Z,58.24
2023-04-11T11:28:46.429Z,58.14
2023-04-11T11:31:18.593Z,58.23
2023-04-11T11:33:50.860Z,58.14
2023-04-11T11:36:23.016Z,58.13
2023-04-11T11:38:55.466Z,57.36
2023-04-11T11:41:28.448Z,57.81
2023-04-11T11:44:01.495Z,57.93
2023-04-11T11:46:34.210Z,57.90
2023-04-11T11:49:08.395Z,57.95
2023-04-11T11:51:45.837Z,57.44
2023-04-11T11:54:17.993Z,57.60
2023-04-11T11:56:53.921Z,56.58
2023-04-11T11:59:30.469Z,57.46
2023-04-11T12:02:03.670Z,57.54
2023-04-11T12:04:36.426Z,57.13
2023-04-11T12:07:13.409Z,57.26
2023-04-11T12:09:48.826Z,57.43
2023-04-11T12:12:21.103Z,57.23
2023-04-11T12:14:56.946Z,57.18
2023-04-11T12:17:36.242Z,57.11
2023-04-11T12:20:11.984Z,57.20
2023-04-11T12:22:44.540Z,57.19
2023-04-11T12:25:17.533Z,57.16
2023-04-11T12:27:51.156Z,57.04
2023-04-11T12:30:23.465Z,57.11
2023-04-11T12:32:56.305Z,56.58
2023-04-11T12:35:28.579Z,56.76
2023-04-11T12:38:00.751Z,56.68
2023-04-11T12:40:32.989Z,56.92
2023-04-11T12:43:05.128Z,56.27
2023-04-11T12:45:37.727Z,56.66
2023-04-11T12:48:10.786Z,56.71
2023-04-11T12:50:43.073Z,56.54
2023-04-11T12:53:15.206Z,56.45
2023-04-11T12:55:49.990Z,56.48
2023-04-11T12:58:22.271Z,56.75
2023-04-11T13:00:54.362Z,56.68
2023-04-11T13:03:27.577Z,56.66
2023-04-11T13:05:59.895Z,56.63
2023-04-11T13:08:32.072Z,56.67
2023-04-11T13:11:04.180Z,56.70
2023-04-11T13:13:36.858Z,56.64
2023-04-11T13:16:12.485Z,56.49
2023-04-11T13:18:44.906Z,56.22
2023-04-11T13:21:17.069Z,56.02
2023-04-11T13:23:49.284Z,55.86
2023-04-11T13:26:21.504Z,55.90
2023-04-11T13:28:53.751Z,55.80
2023-04-11T13:31:26.818Z,55.49
2023-04-11T13:33:59.495Z,55.91
2023-04-11T13:36:32.364Z,55.77
2023-04-11T13:39:05.817Z,55.60
2023-04-11T13:41:38.091Z,55.40
2023-04-11T13:44:10.205Z,55.61
2023-04-11T13:46:42.296Z,55.46
2023-04-11T13:49:14.660Z,55.44
2023-04-11T13:51:46.957Z,55.22
2023-04-11T13:54:19.153Z,54.78
2023-04-11T13:56:51.304Z,55.01
2023-04-11T13:59:23.627Z,54.86
2023-04-11T14:01:55.791Z,54.95
2023-04-11T14:04:28.878Z,54.82
2023-04-11T14:07:01.080Z,54.88
2023-04-11T14:09:33.167Z,54.62
2023-04-11T14:12:05.566Z,54.94
2023-04-11T14:14:37.731Z,54.84
2023-04-11T14:17:09.903Z,54.67
2023-04-11T14:19:42.167Z,54.69
2023-04-11T14:22:14.507Z,54.74
2023-04-11T14:24:46.711Z,54.33
2023-04-11T14:27:18.736Z,54.36
2023-04-11T14:29:51.464Z,53.25
2023-04-11T14:32:23.802Z,53.36
2023-04-11T14:34:56.257Z,54.34
2023-04-11T14:37:28.344Z,54.22
2023-04-11T14:40:00.540Z,53.64
2023-04-11T14:42:32.836Z,53.65
2023-04-11T14:45:06.016Z,53.88
2023-04-11T14:47:39.837Z,53.73
2023-04-11T14:50:13.426Z,53.90
2023-04-11T14:52:45.672Z,53.76
2023-04-11T14:55:18.137Z,53.68
2023-04-11T14:57:52.729Z,53.77
2023-04-11T15:00:25.043Z,53.49
2023-04-11T15:02:58.602Z,53.54
2023-04-11T15:05:30.778Z,53.48
2023-04-11T15:08:03.606Z,52.92
2023-04-11T15:10:36.129Z,53.06
2023-04-11T15:13:09.230Z,52.80
2023-04-11T15:15:41.429Z,53.15
2023-04-11T15:18:25.151Z,53.15
2023-04-11T15:20:58.424Z,52.70
2023-04-11T15:23:30.680Z,52.85
2023-04-11T15:26:04.378Z,52.44
2023-04-11T15:28:38.307Z,52.58
2023-04-11T15:31:13.045Z,52.45
2023-04-11T15:33:45.160Z,52.37
2023-04-11T15:36:17.754Z,52.40
2023-04-11T15:38:50.012Z,52.56
2023-04-11T15:41:22.178Z,52.47
2023-04-11T15:43:54.543Z,52.64
2023-04-11T15:46:27.294Z,52.68
2023-04-11T15:48:59.376Z,52.53
2023-04-11T15:51:31.605Z,52.59
2023-04-11T15:54:04.916Z,52.39
2023-04-11T15:56:37.411Z,52.61
2023-04-11T15:59:12.961Z,52.58
2023-04-11T16:01:45.093Z,52.50
2023-04-11T16:04:19.944Z,52.62
2023-04-11T16:06:52.618Z,52.63
2023-04-11T16:09:24.822Z,52.49
2023-04-11T16:11:57.305Z,52.31
2023-04-11T16:14:30.167Z,52.50
2023-04-11T16:17:02.236Z,52.46
2023-04-11T16:19:34.393Z,52.41
2023-04-11T16:22:06.546Z,52.48
2023-04-11T16:24:38.629Z,52.54
2023-04-11T16:27:10.792Z,52.47
2023-04-11T16:29:43.062Z,52.49
2023-04-11T16:32:15.191Z,52.43
2023-04-11T16:34:47.278Z,52.32
2023-04-11T16:37:19.434Z,52.51
2023-04-11T16:39:51.611Z,52.34
2023-04-11T16:42:23.976Z,52.36
2023-04-11T16:44:56.135Z,52.30
2023-04-11T16:47:28.338Z,52.24
2023-04-11T16:50:00.676Z,52.28
2023-04-11T16:52:33.153Z,52.19
2023-04-11T16:55:05.821Z,52.28
2023-04-11T16:57:38.195Z,52.40
2023-04-11T17:00:16.149Z,52.36
2023-04-11T17:02:48.648Z,52.42
2023-04-11T17:05:21.075Z,52.34
2023-04-11T17:07:53.222Z,52.41
2023-04-11T17:10:25.416Z,52.47
2023-04-11T17:12:58.954Z,52.51
2023-04-11T17:15:31.539Z,52.39
2023-04-11T17:18:03.664Z,52.54
2023-04-11T17:20:36.121Z,52.43
2023-04-11T17:23:08.308Z,52.44
2023-04-11T17:25:40.518Z,52.51
2023-04-11T17:28:12.798Z,52.65
2023-04-11T17:30:44.952Z,52.67
2023-04-11T17:33:17.423Z,52.60
2023-04-11T17:35:49.894Z,52.62
2023-04-11T17:38:22.169Z,52.64
2023-04-11T17:41:00.309Z,52.78
2023-04-11T17:43:39.101Z,52.63
2023-04-11T17:46:12.501Z,52.67
2023-04-11T17:48:44.704Z,53.19
2023-04-11T17:51:16.799Z,53.29
2023-04-11T17:53:48.894Z,53.70
2023-04-11T17:56:31.170Z,53.64
2023-04-11T17:59:03.464Z,53.64
2023-04-11T18:01:35.806Z,53.83
2023-04-11T18:04:09.901Z,53.90
2023-04-11T18:06:46.153Z,53.99
2023-04-11T18:09:18.544Z,54.21
2023-04-11T18:11:53.111Z,54.55
2023-04-11T18:14:25.506Z,54.39
2023-04-11T18:16:59.114Z,54.39
2023-04-11T18:19:31.436Z,54.39
2023-04-11T18:22:03.755Z,54.66
2023-04-11T18:24:36.070Z,54.78
2023-04-11T18:27:09.242Z,55.04
2023-04-11T18:29:42.369Z,55.18
2023-04-11T18:32:14.627Z,55.22
2023-04-11T18:34:47.293Z,55.30
2023-04-11T18:37:21.408Z,55.27
2023-04-11T18:39:55.146Z,55.40
2023-04-11T18:42:27.450Z,55.71
2023-04-11T18:45:00.232Z,55.63
2023-04-11T18:47:32.781Z,55.98
2023-04-11T18:50:05.854Z,55.80
2023-04-11T18:52:38.327Z,55.80
2023-04-11T18:55:13.916Z,56.01
2023-04-11T18:57:48.669Z,55.90
2023-04-11T19:00:22.211Z,56.11
2023-04-11T19:02:54.897Z,56.12
2023-04-11T19:05:28.198Z,56.14
2023-04-11T19:08:01.951Z,56.12
2023-04-11T19:10:34.652Z,56.33
2023-04-11T19:13:07.250Z,56.37
2023-04-11T19:15:41.197Z,56.62
2023-04-11T19:18:13.770Z,56.65
2023-04-11T19:20:46.502Z,56.74
2023-04-11T19:23:19.763Z,56.83
2023-04-11T19:25:52.236Z,56.87
2023-04-11T19:28:24.778Z,56.99
2023-04-11T19:30:56.988Z,57.05
2023-04-11T19:33:29.425Z,57.12
2023-04-11T19:36:01.718Z,57.29
2023-04-11T19:38:34.783Z,57.17
2023-04-11T19:41:15.508Z,57.23
2023-04-11T19:43:48.816Z,57.46
2023-04-11T19:46:21.251Z,57.45
2023-04-11T19:48:55.060Z,57.51
2023-04-11T19:51:27.569Z,57.68
2023-04-11T19:54:00.039Z,57.79
2023-04-11T19:56:32.404Z,57.83
2023-04-11T19:59:04.706Z,57.92
2023-04-11T20:01:36.994Z,57.99
2023-04-11T20:04:09.828Z,58.22
2023-04-11T20:06:44.149Z,58.35
2023-04-11T20:09:16.433Z,58.36
2023-04-11T20:11:50.840Z,58.30
2023-04-11T20:14:23.300Z,58.35
2023-04-11T20:16:55.605Z,58.50
2023-04-11T20:19:29.877Z,58.48
2023-04-11T20:22:03.066Z,58.55
2023-04-11T20:24:35.429Z,58.61
2023-04-11T20:27:07.650Z,58.84
2023-04-11T20:29:39.717Z,58.98
2023-04-11T20:32:12.068Z,58.87
2023-04-11T20:34:44.180Z,59.04
2023-04-11T20:37:18.360Z,59.13
2023-04-11T20:39:50.697Z,59.09
2023-04-11T20:42:22.960Z,59.26
2023-04-11T20:44:57.942Z,59.37
2023-04-11T20:47:30.200Z,59.39
2023-04-11T20:50:03.973Z,59.37
2023-04-11T20:52:36.951Z,59.30
2023-04-11T20:55:13.728Z,59.37
2023-04-11T20:57:46.213Z,59.36
2023-04-11T21:00:20.246Z,59.59
2023-04-11T21:02:53.207Z,59.65
2023-04-11T21:05:25.903Z,59.67
2023-04-11T21:07:58.480Z,59.84
2023-04-11T21:10:30.605Z,59.74
2023-04-11T21:13:02.759Z,59.90
2023-04-11T21:15:36.086Z,59.82
2023-04-11T21:18:08.382Z,59.87
2023-04-11T21:20:41.743Z,60.17
2023-04-11T21:23:13.886Z,60.06
2023-04-11T21:25:45.989Z,60.02
2023-04-11T21:28:18.238Z,60.16
2023-04-11T21:30:50.533Z,60.23
2023-04-11T21:33:22.747Z,60.18
2023-04-11T21:35:56.915Z,60.33
2023-04-11T21:38:29.169Z,60.48
2023-04-11T21:41:01.319Z,60.44
2023-04-11T21:43:33.487Z,60.51
2023-04-11T21:46:05.985Z,60.55
2023-04-11T21:48:38.148Z,60.65
2023-04-11T21:51:11.121Z,60.79
2023-04-11T21:53:43.229Z,60.96
2023-04-11T21:56:15.559Z,60.81
2023-04-11T21:58:47.777Z,60.86
2023-04-11T22:01:21.084Z,60.84
2023-04-11T22:03:53.379Z,60.86
2023-04-11T22:06:26.687Z,60.93
2023-04-11T22:09:01.489Z,61.04
2023-04-11T22:11:32.119Z,61.18
2023-04-11T22:14:04.312Z,61.16
2023-04-11T22:16:36.531Z,61.25
2023-04-11T22:19:09.159Z,61.32
2023-04-11T22:21:41.406Z,61.56
2023-04-11T22:24:13.643Z,61.29
2023-04-11T22:26:49.243Z,61.41
2023-04-11T22:29:22.290Z,61.22
2023-04-11T22:31:54.588Z,61.36
2023-04-11T22:34:27.047Z,61.44
2023-04-11T22:36:59.128Z,61.61
2023-04-11T22:39:31.721Z,61.86
2023-04-11T22:42:04.954Z,61.81
2023-04-11T22:44:37.126Z,61.83
2023-04-11T22:47:13.616Z,61.75
2023-04-11T22:49:45.973Z,61.85
2023-04-11T22:52:24.416Z,62.01
2023-04-11T22:54:57.764Z,61.95
2023-04-11T22:57:29.857Z,62.01
2023-04-11T23:00:03.097Z,61.95
2023-04-11T23:02:36.155Z,61.94
2023-04-11T23:05:11.492Z,62.13
2023-04-11T23:07:44.099Z,62.16
2023-04-11T23:10:17.279Z,62.18
2023-04-11T23:12:49.658Z,62.26
2023-04-11T23:15:22.795Z,62.35
2023-04-11T23:17:55.040Z,62.31
2023-04-11T23:20:27.558Z,62.45
2023-04-11T23:22:59.848Z,62.56
2023-04-11T23:25:32.080Z,62.64
2023-04-11T23:28:04.256Z,62.57
2023-04-11T23:30:37.350Z,62.59
2023-04-11T23:33:09.610Z,62.63
2023-04-11T23:35:42.113Z,62.57
2023-04-11T23:38:14.250Z,62.69
2023-04-11T23:40:46.500Z,62.72
2023-04-11T23:43:18.638Z,62.96
2023-04-11T23:45:50.950Z,63.08
2023-04-11T23:48:23.688Z,63.01
2023-04-11T23:50:56.367Z,63.16
2023-04-11T23:53:28.511Z,63.17
2023-04-11T23:56:03.397Z,63.25
2023-04-11T23:58:35.074Z,63.35
